Time;durP1;ratioP1;P1;durP2;ratioP2;P2;SDS_P1;SDS_P2;PMS_P1;PMS_P2;Temp;Humidity;BMP_temperature;BMP_pressure;BME280_temperature;BME280_humidity;BME280_pressure;Samples;Min_cycle;Max_cycle;Signal;HPM_P1;HPM_P2
2021/05/15 00:01:28;;;;;;;21.67;13.15;;;;;;;;;;4756959;30;20692;-82
2021/05/15 00:03:56;;;;;;;20.63;12.95;;;;;;;;;;4757043;30;20688;-83
2021/05/15 00:06:22;;;;;;;19.52;13.73;;;12.40;99.90;;;;;;4757094;30;20533;-83
2021/05/15 00:08:48;;;;;;;21.17;14.07;;;12.60;99.90;;;;;;4772689;30;20178;-82
2021/05/15 00:11:14;;;;;;;21.83;12.60;;;;;;;;;;4757179;30;20194;-82
2021/05/15 00:13:40;;;;;;;21.05;13.80;;;12.40;99.90;;;;;;4772697;30;20178;-83
2021/05/15 00:16:05;;;;;;;20.25;13.25;;;12.70;99.90;;;;;;4757033;30;20281;-82
2021/05/15 00:18:32;;;;;;;19.85;13.98;;;;;;;;;;4756556;30;20770;-81
2021/05/15 00:20:58;;;;;;;18.85;12.85;;;12.60;99.90;;;;;;4756987;30;20606;-82
2021/05/15 00:23:24;;;;;;;22.10;14.05;;;;;;;;;;4772987;30;20197;-83
2021/05/15 00:25:50;;;;;;;19.88;13.77;;;12.30;99.90;;;;;;4756646;30;20197;-83
2021/05/15 00:28:15;;;;;;;19.45;13.88;;;12.70;99.90;;;;;;4756706;30;20231;-82
2021/05/15 00:30:41;;;;;;;21.40;13.23;;;12.50;99.90;;;;;;4756334;30;20239;-83
2021/05/15 00:33:07;;;;;;;22.67;13.15;;;12.40;99.90;;;;;;4772453;30;20193;-82
2021/05/15 00:35:32;;;;;;;21.40;13.90;;;12.30;99.90;;;;;;4772233;30;20185;-83
2021/05/15 00:37:58;;;;;;;20.40;13.93;;;12.50;99.90;;;;;;4756390;30;20548;-82
2021/05/15 00:40:24;;;;;;;23.52;14.23;;;12.20;99.90;;;;;;4756160;30;20217;-82
2021/05/15 00:42:50;;;;;;;20.30;13.52;;;12.30;99.90;;;;;;4772200;30;20191;-82
2021/05/15 00:45:16;;;;;;;18.17;13.02;;;12.10;99.90;;;;;;4756453;30;20197;-82
2021/05/15 00:47:43;;;;;;;21.55;13.50;;;12.40;99.90;;;;;;4755862;30;20201;-83
2021/05/15 00:50:09;;;;;;;21.80;14.07;;;12.40;99.90;;;;;;4772168;30;20273;-82
2021/05/15 00:52:35;;;;;;;18.02;12.65;;;12.70;99.90;;;;;;4755916;30;20667;-83
2021/05/15 00:55:12;;;;;;;18.13;12.93;;;12.80;99.90;;;;;;4756658;30;20197;-82
2021/05/15 00:57:39;;;;;;;21.45;13.10;;;12.40;99.90;;;;;;4755792;30;20192;-83
2021/05/15 01:00:13;;;;;;;20.48;13.43;;;12.70;99.90;;;;;;4772194;30;20220;-82
2021/05/15 01:02:39;;;;;;;21.63;13.60;;;12.10;99.90;;;;;;4768502;30;20671;-82
2021/05/15 01:05:09;;;;;;;19.83;13.18;;;12.30;99.90;;;;;;4755677;30;20194;-82
2021/05/15 01:07:35;;;;;;;21.45;13.65;;;;;;;;;;4772023;30;20182;-84
2021/05/15 01:10:01;;;;;;;23.58;13.73;;;12.20;99.90;;;;;;4755789;30;20660;-82
2021/05/15 01:12:27;;;;;;;20.83;13.65;;;;;;;;;;4771870;30;20210;-82
2021/05/15 01:14:53;;;;;;;23.20;12.45;;;12.10;99.90;;;;;;4756238;30;20268;-81
2021/05/15 01:17:19;;;;;;;20.30;13.55;;;;;;;;;;4755780;30;20352;-82
2021/05/15 01:19:45;;;;;;;24.17;13.93;;;12.00;99.90;;;;;;4771601;30;20236;-82
2021/05/15 01:22:14;;;;;;;22.58;13.90;;;12.20;99.90;;;;;;4741057;30;20284;-81
2021/05/15 01:24:42;;;;;;;20.90;13.40;;;12.00;99.90;;;;;;4755712;30;20182;-82
2021/05/15 01:27:09;;;;;;;22.30;13.05;;;12.50;99.90;;;;;;4741616;30;20652;-81
2021/05/15 01:29:35;;;;;;;20.45;13.52;;;11.90;99.90;;;;;;4771135;30;20190;-81
2021/05/15 01:32:02;;;;;;;20.60;12.73;;;11.60;99.90;;;;;;4771039;30;20648;-81
2021/05/15 01:34:28;;;;;;;23.77;13.18;;;12.00;99.90;;;;;;4755209;30;20652;-81
2021/05/15 01:36:54;;;;;;;20.33;12.20;;;;;;;;;;4770737;30;20198;-81
2021/05/15 01:39:20;;;;;;;21.63;13.45;;;11.90;99.90;;;;;;4755296;30;20215;-81
2021/05/15 01:41:46;;;;;;;18.13;12.00;;;;;;;;;;4754852;30;20198;-81
2021/05/15 01:44:13;;;;;;;22.27;12.20;;;11.90;99.90;;;;;;4771305;30;20549;-80
2021/05/15 01:46:39;;;;;;;19.55;11.45;;;12.10;99.90;;;;;;4754629;30;20574;-81
2021/05/15 01:49:05;;;;;;;19.35;12.32;;;11.70;99.90;;;;;;4755281;30;20719;-81
2021/05/15 01:51:32;;;;;;;18.58;12.00;;;11.40;99.90;;;;;;4771152;30;20297;-81
2021/05/15 01:53:58;;;;;;;20.70;12.82;;;11.50;99.90;;;;;;4740216;30;20194;-82
2021/05/15 01:56:29;;;;;;;21.00;13.05;;;11.70;99.90;;;;;;4755057;30;20205;-81
2021/05/15 01:58:55;;;;;;;17.27;12.07;;;11.80;99.90;;;;;;4771183;30;20186;-82
2021/05/15 02:01:23;;;;;;;18.73;11.80;;;12.00;99.90;;;;;;4771217;30;20205;-81
2021/05/15 02:03:49;;;;;;;22.45;12.13;;;11.50;99.90;;;;;;4771064;30;20182;-82
2021/05/15 02:06:15;;;;;;;17.33;11.93;;;;;;;;;;4755459;30;20670;-81
2021/05/15 02:08:45;;;;;;;17.42;11.40;;;11.90;99.90;;;;;;4740233;30;20194;-81
2021/05/15 02:11:11;;;;;;;17.75;10.77;;;11.70;99.90;;;;;;4755055;30;20202;-81
2021/05/15 02:13:36;;;;;;;24.77;12.85;;;11.50;99.90;;;;;;4754367;30;20273;-81
2021/05/15 02:16:03;;;;;;;21.58;12.25;;;11.80;99.90;;;;;;4770375;30;20281;-82
2021/05/15 02:18:29;;;;;;;19.80;12.45;;;11.50;99.90;;;;;;4754642;30;20324;-82
2021/05/15 02:20:55;;;;;;;20.10;11.93;;;;;;;;;;4754426;30;20644;-82
2021/05/15 02:23:22;;;;;;;19.25;12.13;;;11.50;99.90;;;;;;4770720;30;20557;-82
2021/05/15 02:25:48;;;;;;;16.45;11.13;;;12.10;99.90;;;;;;4770284;30;20197;-83
2021/05/15 02:28:18;;;;;;;20.33;12.60;;;11.50;99.90;;;;;;4770797;30;20280;-82
2021/05/15 02:30:44;;;;;;;17.98;11.57;;;11.60;99.90;;;;;;4770386;30;20243;-82
2021/05/15 02:33:11;;;;;;;24.90;11.82;;;11.60;99.90;;;;;;4770372;30;20221;-82
2021/05/15 02:35:37;;;;;;;17.30;11.57;;;12.00;99.90;;;;;;4754326;30;20514;-81
2021/05/15 02:38:05;;;;;;;19.52;11.57;;;11.70;99.90;;;;;;4754169;30;20576;-82
2021/05/15 02:40:31;;;;;;;19.33;11.68;;;11.70;99.90;;;;;;4739813;30;20221;-81
2021/05/15 02:42:57;;;;;;;19.40;12.43;;;12.00;99.90;;;;;;4769780;30;20190;-82
2021/05/15 02:45:24;;;;;;;18.42;11.32;;;11.80;99.90;;;;;;4754241;30;20252;-81
2021/05/15 02:47:55;;;;;;;19.60;12.23;;;12.00;99.90;;;;;;4770013;30;20287;-82
2021/05/15 02:50:22;;;;;;;17.50;12.00;;;11.70;99.90;;;;;;4754003;30;20190;-81
2021/05/15 02:52:48;;;;;;;18.23;11.13;;;;;;;;;;4754251;30;20281;-83
2021/05/15 02:55:25;;;;;;;20.02;12.88;;;11.40;99.90;;;;;;4770461;30;20660;-81
2021/05/15 02:57:51;;;;;;;21.52;11.18;;;11.70;99.90;;;;;;4769607;30;20170;-81
2021/05/15 03:00:26;;;;;;;18.42;11.50;;;11.40;99.90;;;;;;4753959;30;20232;-81
2021/05/15 03:02:52;;;;;;;18.63;12.32;;;11.80;99.90;;;;;;4766857;30;20241;-81
2021/05/15 03:05:21;;;;;;;19.73;12.07;;;11.30;99.90;;;;;;4739046;30;20198;-81
2021/05/15 03:07:47;;;;;;;17.50;11.60;;;11.80;99.90;;;;;;4753761;30;20194;-81
2021/05/15 03:10:13;;;;;;;18.15;11.65;;;11.50;99.90;;;;;;4753531;30;20201;-81
2021/05/15 03:12:39;;;;;;;21.00;11.98;;;11.40;99.90;;;;;;4769707;30;20259;-81
2021/05/15 03:15:11;;;;;;;15.68;10.63;;;11.30;99.90;;;;;;4770051;30;20194;-81
2021/05/15 03:17:38;;;;;;;17.92;12.05;;;11.20;99.90;;;;;;4770141;30;20245;-82
2021/05/15 03:20:06;;;;;;;18.33;11.05;;;11.50;99.90;;;;;;4769577;30;20210;-83
2021/05/15 03:22:32;;;;;;;22.00;11.57;;;11.30;99.90;;;;;;4753654;30;20284;-82
2021/05/15 03:24:58;;;;;;;17.17;11.63;;;11.80;99.90;;;;;;4757516;30;20717;-83
2021/05/15 03:27:24;;;;;;;22.25;12.32;;;;;;;;;;4778196;30;20189;-81
2021/05/15 03:29:50;;;;;;;16.00;11.00;;;11.90;99.90;;;;;;4785432;30;20193;-81
2021/05/15 03:32:16;;;;;;;20.50;13.43;;;;;;;;;;4764238;30;20205;-82
2021/05/15 03:34:42;;;;;;;23.02;14.07;;;11.90;99.90;;;;;;4745167;30;20197;-82
2021/05/15 03:37:08;;;;;;;24.85;14.27;;;11.80;99.90;;;;;;4759138;30;20201;-82
2021/05/15 03:39:34;;;;;;;21.90;13.02;;;;;;;;;;4745058;30;20198;-82
2021/05/15 03:42:00;;;;;;;20.95;13.88;;;11.50;99.90;;;;;;4759153;30;20557;-83
2021/05/15 03:44:26;;;;;;;20.90;13.60;;;11.70;99.90;;;;;;4767346;30;20197;-82
2021/05/15 03:46:52;;;;;;;26.83;13.80;;;11.60;99.90;;;;;;4767218;30;20193;-82
2021/05/15 03:49:19;;;;;;;20.95;13.35;;;11.50;99.90;;;;;;4780574;30;20664;-83
2021/05/15 03:51:44;;;;;;;24.85;13.88;;;11.60;99.90;;;;;;4744886;30;20193;-83
2021/05/15 03:54:11;;;;;;;22.92;13.75;;;;;;;;;;4759258;30;20541;-83
2021/05/15 03:56:36;;;;;;;21.05;12.35;;;11.60;99.90;;;;;;4759056;30;20197;-82
2021/05/15 03:59:03;;;;;;;34.05;13.00;;;11.70;99.90;;;;;;4759390;30;20201;-82
2021/05/15 04:01:29;;;;;;;19.25;11.68;;;11.70;99.90;;;;;;4775316;30;20226;-82
2021/05/15 04:03:55;;;;;;;20.42;12.43;;;;;;;;;;4759350;30;20528;-82
2021/05/15 04:06:21;;;;;;;18.60;12.48;;;11.20;99.90;;;;;;4759429;30;20328;-82
2021/05/15 04:08:47;;;;;;;21.88;13.30;;;;;;;;;;4759645;30;20649;-82
2021/05/15 04:11:13;;;;;;;17.27;11.23;;;11.40;99.90;;;;;;4775431;30;20194;-82
2021/05/15 04:16:32;;;;;;;18.40;11.10;;;11.70;99.90;;;;;;4775102;30;20198;-83
2021/05/15 04:18:50;;;;;;;18.17;12.27;;;11.30;99.90;;;;;;4774859;30;20336;-83
2021/05/15 04:21:16;;;;;;;17.13;11.00;;;11.50;99.90;;;;;;4774801;30;20304;-83
2021/05/15 04:23:42;;;;;;;16.10;10.52;;;11.60;99.90;;;;;;4775108;30;20710;-82
2021/05/15 04:26:11;;;;;;;19.23;11.55;;;11.60;99.90;;;;;;4759094;30;20316;-83
2021/05/15 04:28:37;;;;;;;21.80;11.10;;;;;;;;;;4759726;30;20190;-82
2021/05/15 04:31:03;;;;;;;17.83;11.05;;;11.90;99.90;;;;;;4774978;30;20229;-82
2021/05/15 04:33:29;;;;;;;15.65;10.45;;;;;;;;;;4775283;30;20264;-82
2021/05/15 04:35:55;;;;;;;19.58;11.05;;;12.00;99.90;;;;;;4742746;30;20220;-82
2021/05/15 04:38:22;;;;;;;17.63;10.77;;;11.40;99.90;;;;;;4741786;30;20194;-82
2021/05/15 04:40:49;;;;;;;15.65;10.30;;;11.70;99.90;;;;;;4772302;30;20229;-82
2021/05/15 04:43:14;;;;;;;18.50;10.32;;;11.40;99.90;;;;;;4771987;30;20221;-82
2021/05/15 04:45:43;;;;;;;15.65;10.50;;;11.80;99.90;;;;;;4741715;30;20720;-82
2021/05/15 04:48:10;;;;;;;17.35;10.65;;;11.80;99.90;;;;;;4756172;30;20205;-82
2021/05/15 04:50:37;;;;;;;14.00;10.02;;;11.60;99.90;;;;;;4756707;30;20198;-82
2021/05/15 04:53:03;;;;;;;15.00;10.23;;;;;;;;;;4772715;30;20189;-84
2021/05/15 04:55:29;;;;;;;15.27;9.60;;;11.70;99.90;;;;;;4756147;30;20284;-81
2021/05/15 04:57:57;;;;;;;15.80;10.35;;;11.80;99.90;;;;;;4772121;30;20272;-82
2021/05/15 05:00:23;;;;;;;18.60;10.52;;;11.80;99.90;;;;;;4755326;30;21072;-83
2021/05/15 05:02:49;;;;;;;16.88;10.13;;;12.00;99.90;;;;;;4771984;30;20259;-82
2021/05/15 05:05:16;;;;;;;21.20;9.15;;;;;;;;;;4771973;30;20217;-82
2021/05/15 05:07:42;;;;;;;13.27;8.75;;;12.00;99.90;;;;;;4756051;30;20201;-83
2021/05/15 05:10:08;;;;;;;11.63;7.95;;;12.20;99.90;;;;;;4755482;30;20194;-83
2021/05/15 05:12:34;;;;;;;11.18;8.68;;;;;;;;;;4771071;30;20696;-82
2021/05/15 05:15:00;;;;;;;12.27;8.70;;;12.10;99.90;;;;;;4755156;30;20194;-82
2021/05/15 05:17:26;;;;;;;15.10;9.48;;;;;;;;;;4753952;30;20242;-82
2021/05/15 05:19:52;;;;;;;13.00;8.95;;;12.30;99.90;;;;;;4771204;30;20247;-82
2021/05/15 05:22:19;;;;;;;12.07;8.98;;;12.20;99.90;;;;;;4754853;30;20201;-82
2021/05/15 05:24:45;;;;;;;12.55;8.57;;;;;;;;;;4771816;30;20182;-82
2021/05/15 05:27:12;;;;;;;15.52;8.90;;;12.40;99.90;;;;;;4771768;30;20186;-82
2021/05/15 05:29:38;;;;;;;12.82;8.02;;;12.60;99.90;;;;;;4771756;30;20192;-82
2021/05/15 05:32:08;;;;;;;16.70;8.38;;;12.70;99.90;;;;;;4771462;30;20187;-81
2021/05/15 05:34:38;;;;;;;13.82;8.98;;;12.30;99.90;;;;;;4755520;30;20184;-82
2021/05/15 05:37:04;;;;;;;11.20;7.90;;;12.60;99.90;;;;;;4755596;30;20280;-82
2021/05/15 05:39:31;;;;;;;13.30;8.65;;;12.70;99.90;;;;;;4739543;30;20190;-85
2021/05/15 05:41:57;;;;;;;12.90;8.18;;;12.60;99.90;;;;;;4763164;30;20190;-84
2021/05/15 05:44:23;;;;;;;12.18;7.55;;;;;;;;;;4737043;30;20234;-83
2021/05/15 05:46:49;;;;;;;11.15;8.25;;;;;;;;;;4752922;30;20205;-83
2021/05/15 05:49:16;;;;;;;12.00;7.32;;;;;;;;;;4754592;30;20194;-86
2021/05/15 05:51:42;;;;;;;12.15;7.38;;;;;;;;;;4753015;30;20297;-83
2021/05/15 05:54:08;;;;;;;9.45;6.90;;;;;;;;;;4769290;30;20226;-83
2021/05/15 05:56:34;;;;;;;9.15;6.50;;;12.90;99.90;;;;;;4769118;30;20206;-82
2021/05/15 05:59:00;;;;;;;12.35;6.82;;;;;;;;;;4769288;30;20202;-83
2021/05/15 06:01:26;;;;;;;12.95;7.03;;;13.10;99.90;;;;;;4769137;30;20237;-83
2021/05/15 06:03:52;;;;;;;14.82;8.18;;;;;;;;;;4769220;30;20521;-83
2021/05/15 06:06:18;;;;;;;9.43;6.45;;;12.90;99.90;;;;;;4753576;30;20635;-82
2021/05/15 06:08:44;;;;;;;10.98;7.43;;;;;;;;;;4737582;30;20755;-82
2021/05/15 06:11:10;;;;;;;10.40;6.70;;;;;;;;;;4752004;30;20209;-83
2021/05/15 06:13:36;;;;;;;12.00;7.18;;;;;;;;;;4750673;30;20210;-82
2021/05/15 06:16:02;;;;;;;11.50;7.55;;;;;;;;;;4735512;30;20193;-81
2021/05/15 06:18:28;;;;;;;10.27;6.95;;;;;;;;;;4767719;30;20277;-84
2021/05/15 06:20:55;;;;;;;11.65;6.88;;;;;;;;;;4749957;30;20712;-83
2021/05/15 06:23:21;;;;;;;9.18;7.00;;;13.10;99.90;;;;;;4767649;30;20192;-84
2021/05/15 06:25:46;;;;;;;9.02;6.43;;;12.90;99.90;;;;;;4749702;30;20194;-82
2021/05/15 06:28:13;;;;;;;7.72;5.95;;;;;;;;;;4767100;30;20225;-82
2021/05/15 06:30:39;;;;;;;11.50;6.65;;;13.20;99.90;;;;;;4745170;30;20729;-83
2021/05/15 06:33:05;;;;;;;9.38;5.85;;;13.50;99.90;;;;;;4767050;30;20198;-83
2021/05/15 06:35:32;;;;;;;9.27;6.13;;;;;;;;;;4761487;30;20206;-84
2021/05/15 06:37:59;;;;;;;7.55;5.47;;;;;;;;;;4750373;30;20569;-84
2021/05/15 06:40:25;;;;;;;9.68;6.28;;;;;;;;;;4741469;30;20234;-84
2021/05/15 06:42:51;;;;;;;7.93;6.20;;;;;;;;;;4764238;30;20662;-82
2021/05/15 06:45:17;;;;;;;11.90;5.53;;;13.50;99.90;;;;;;4751864;30;20710;-82
2021/05/15 06:47:43;;;;;;;8.13;5.78;;;;;;;;;;4737974;30;20226;-83
2021/05/15 06:50:09;;;;;;;8.50;5.80;;;13.50;99.90;;;;;;4750996;30;20216;-84
2021/05/15 06:52:36;;;;;;;9.52;5.50;;;13.70;99.90;;;;;;4768468;30;20197;-83
2021/05/15 06:55:03;;;;;;;6.78;5.18;;;13.50;99.90;;;;;;4752827;30;20198;-83
2021/05/15 06:57:29;;;;;;;8.77;6.07;;;;;;;;;;4767840;30;20660;-83
2021/05/15 06:59:55;;;;;;;8.18;6.15;;;;;;;;;;4751847;30;20236;-84
2021/05/15 07:02:21;;;;;;;6.95;5.22;;;13.70;99.90;;;;;;4767162;30;20195;-83
2021/05/15 07:04:47;;;;;;;6.15;4.60;;;13.60;99.90;;;;;;4753799;30;20202;-84
2021/05/15 07:07:13;;;;;;;5.75;4.10;;;13.70;99.90;;;;;;4768324;30;20190;-83
2021/05/15 07:09:39;;;;;;;5.38;4.10;;;;;;;;;;4752561;30;20201;-83
2021/05/15 07:12:05;;;;;;;6.75;4.18;;;13.80;99.90;;;;;;4752526;30;20225;-84
2021/05/15 07:14:31;;;;;;;4.97;3.28;;;;;;;;;;4737917;30;20217;-81
2021/05/15 07:16:56;;;;;;;5.03;3.20;;;14.10;99.90;;;;;;4767936;30;20632;-83
2021/05/15 07:19:22;;;;;;;9.23;3.13;;;;;;;;;;4768263;30;20320;-82
2021/05/15 07:21:48;;;;;;;3.67;2.83;;;;;;;;;;4751559;30;20290;-82
2021/05/15 07:24:14;;;;;;;6.47;2.85;;;14.10;99.90;;;;;;4751665;30;20194;-83
2021/05/15 07:26:40;;;;;;;4.13;2.50;;;;;;;;;;4752135;30;20542;-84
2021/05/15 07:29:06;;;;;;;3.17;2.70;;;14.80;99.90;;;;;;4763845;30;20220;-81
2021/05/15 07:31:32;;;;;;;6.45;2.47;;;;;;;;;;4740743;30;20660;-81
2021/05/15 07:33:59;;;;;;;2.20;2.00;;;14.70;99.90;;;;;;4765527;30;20198;-81
2021/05/15 07:36:25;;;;;;;3.95;2.67;;;14.50;99.90;;;;;;4744089;30;20194;-82
2021/05/15 07:38:50;;;;;;;7.97;2.92;;;14.70;99.90;;;;;;4751613;30;20256;-81
2021/05/15 07:41:17;;;;;;;2.10;1.52;;;;;;;;;;4743818;30;20269;-83
2021/05/15 07:43:43;;;;;;;2.55;1.95;;;14.60;99.90;;;;;;4752313;30;20217;-83
2021/05/15 07:46:09;;;;;;;4.00;2.30;;;14.70;99.90;;;;;;4766970;30;20246;-82
2021/05/15 07:48:39;;;;;;;3.30;2.28;;;;;;;;;;4757687;30;20281;-81
2021/05/15 07:51:07;;;;;;;3.88;2.60;;;14.30;99.90;;;;;;4744331;30;20205;-81
2021/05/15 07:53:34;;;;;;;4.97;2.40;;;;;;;;;;4752001;30;20213;-81
2021/05/15 07:56:00;;;;;;;4.25;2.42;;;;;;;;;;4733621;30;20198;-81
2021/05/15 07:58:26;;;;;;;4.43;1.90;;;;;;;;;;4736455;30;20202;-82
2021/05/15 08:00:51;;;;;;;3.60;2.55;;;14.10;99.90;;;;;;4759098;30;20307;-82
2021/05/15 08:03:18;;;;;;;6.93;2.30;;;;;;;;;;4754207;30;20687;-82
2021/05/15 08:05:43;;;;;;;4.35;2.13;;;14.40;99.90;;;;;;4742971;30;20201;-82
2021/05/15 08:08:09;;;;;;;3.13;2.17;;;;;;;;;;4742887;30;20217;-81
2021/05/15 08:10:35;;;;;;;5.10;2.33;;;14.10;99.90;;;;;;4764652;30;20233;-82
2021/05/15 08:13:02;;;;;;;2.60;2.13;;;14.20;99.90;;;;;;4739260;30;20264;-83
2021/05/15 08:15:28;;;;;;;3.53;2.70;;;14.40;99.90;;;;;;4745208;30;20274;-83
2021/05/15 08:17:55;;;;;;;3.25;2.17;;;14.40;99.90;;;;;;4746836;30;20604;-83
2021/05/15 08:20:21;;;;;;;5.72;2.25;;;14.40;99.90;;;;;;4764471;30;20305;-83
2021/05/15 08:22:49;;;;;;;3.03;1.98;;;;;;;;;;4758526;30;20306;-83
2021/05/15 08:25:16;;;;;;;2.92;2.13;;;14.70;99.90;;;;;;4759358;30;20538;-83
2021/05/15 08:27:42;;;;;;;3.15;2.03;;;14.40;99.90;;;;;;4763233;30;20588;-83
2021/05/15 08:30:14;;;;;;;7.15;2.83;;;14.80;99.90;;;;;;4740602;30;20241;-82
2021/05/15 08:32:41;;;;;;;2.95;1.77;;;14.90;99.90;;;;;;4744380;30;20273;-82
2021/05/15 08:35:07;;;;;;;4.57;2.08;;;15.00;99.90;;;;;;4739970;30;20277;-83
2021/05/15 08:37:33;;;;;;;3.20;2.22;;;15.20;99.90;;;;;;4753551;30;20268;-83
2021/05/15 08:39:59;;;;;;;6.47;2.20;;;14.90;99.90;;;;;;4765667;30;20684;-84
2021/05/15 08:42:25;;;;;;;3.83;2.15;;;14.80;99.90;;;;;;4740606;30;20202;-85
2021/05/15 08:44:51;;;;;;;2.42;1.85;;;14.60;99.90;;;;;;4755473;30;20210;-85
2021/05/15 08:47:19;;;;;;;4.82;1.95;;;14.70;99.90;;;;;;4775366;30;20213;-86
2021/05/15 08:49:46;;;;;;;3.28;2.30;;;17.00;99.90;;;;;;4789402;30;20186;-85
2021/05/15 08:52:13;;;;;;;5.35;2.50;;;14.60;99.90;;;;;;4771833;30;20693;-84
2021/05/15 08:54:39;;;;;;;3.20;2.13;;;14.10;99.90;;;;;;4771564;30;20284;-84
2021/05/15 08:57:06;;;;;;;6.35;3.03;;;14.30;99.90;;;;;;4771353;30;20270;-85
2021/05/15 08:59:32;;;;;;;3.15;2.22;;;14.30;99.90;;;;;;4769323;30;20667;-84
2021/05/15 09:01:58;;;;;;;3.05;2.53;;;;;;;;;;4753160;30;20235;-86
2021/05/15 09:04:25;;;;;;;8.52;2.35;;;14.40;99.90;;;;;;4754259;30;20236;-88
2021/05/15 09:06:51;;;;;;;8.52;2.25;;;14.60;99.90;;;;;;4753996;30;20561;-86
2021/05/15 09:09:17;;;;;;;5.97;2.30;;;;;;;;;;4745349;30;20201;-87
2021/05/15 09:11:44;;;;;;;4.45;2.22;;;;;;;;;;4754732;30;20202;-90
2021/05/15 09:14:19;;;;;;;5.43;2.33;;;14.80;99.90;;;;;;4776638;30;20197;-88
2021/05/15 09:16:53;;;;;;;4.30;2.17;;;14.90;99.90;;;;;;4748999;30;20264;-86
2021/05/15 09:19:25;;;;;;;3.22;2.17;;;15.40;99.90;;;;;;4750831;30;20325;-85
2021/05/15 09:21:58;;;;;;;5.13;2.40;;;15.30;99.90;;;;;;4769881;30;20225;-85
2021/05/15 09:24:40;;;;;;;4.90;1.90;;;14.80;99.90;;;;;;4761232;30;20254;-84
2021/05/15 09:27:07;;;;;;;3.03;2.08;;;15.10;99.90;;;;;;4754313;30;20197;-84
2021/05/15 09:29:44;;;;;;;7.13;2.50;;;15.10;99.90;;;;;;4769775;30;20279;-82
2021/05/15 09:32:10;;;;;;;3.17;2.20;;;15.00;99.90;;;;;;4769788;30;20200;-84
2021/05/15 09:34:47;;;;;;;6.90;1.95;;;15.50;99.90;;;;;;4754021;30;20251;-83
2021/05/15 09:37:13;;;;;;;3.22;1.98;;;14.80;99.90;;;;;;4769885;30;20223;-83
2021/05/15 09:39:39;;;;;;;4.80;2.40;;;15.40;99.90;;;;;;4752280;30;20194;-84
2021/05/15 09:42:08;;;;;;;4.35;2.00;;;15.20;99.90;;;;;;4751423;30;20827;-83
2021/05/15 09:44:36;;;;;;;5.03;2.35;;;16.30;99.90;;;;;;4757532;30;20194;-84
2021/05/15 09:47:04;;;;;;;4.82;1.92;;;16.10;99.90;;;;;;4753444;30;20256;-84
2021/05/15 09:49:32;;;;;;;2.88;1.92;;;16.40;99.90;;;;;;4752751;30;20186;-84
2021/05/15 09:52:06;;;;;;;4.32;2.25;;;15.90;99.90;;;;;;4752788;30;20244;-84
2021/05/15 09:54:39;;;;;;;4.30;2.28;;;15.40;99.90;;;;;;4753656;30;20185;-83
2021/05/15 09:57:14;;;;;;;5.10;2.00;;;15.90;99.90;;;;;;4770505;30;20186;-84
2021/05/15 09:59:41;;;;;;;3.75;2.35;;;16.10;99.90;;;;;;4772918;30;20193;-85
2021/05/15 10:02:10;;;;;;;5.20;2.33;;;16.00;99.90;;;;;;4753592;30;20259;-85
2021/05/15 10:04:43;;;;;;;4.38;2.40;;;16.10;99.90;;;;;;4753716;30;20280;-86
2021/05/15 10:07:21;;;;;;;5.13;2.25;;;16.40;99.90;;;;;;4769423;30;20224;-86
2021/05/15 10:09:47;;;;;;;4.10;2.13;;;16.20;99.90;;;;;;4753683;30;20366;-85
2021/05/15 10:12:13;;;;;;;2.88;1.90;;;16.70;99.90;;;;;;4752794;30;20222;-86
2021/05/15 10:14:39;;;;;;;3.13;2.00;;;;;;;;;;4753184;30;20285;-86
2021/05/15 10:17:05;;;;;;;4.53;2.42;;;;;;;;;;4769205;30;20201;-85
2021/05/15 10:19:32;;;;;;;5.18;2.00;;;16.70;99.90;;;;;;4753244;30;20224;-84
2021/05/15 10:21:59;;;;;;;3.17;2.03;;;16.70;99.90;;;;;;4737293;30;20287;-85
2021/05/15 10:24:30;;;;;;;3.08;2.17;;;17.00;99.90;;;;;;4738681;30;20197;-85
2021/05/15 10:27:04;;;;;;;5.93;1.85;;;17.00;99.90;;;;;;4753062;30;20178;-83
2021/05/15 10:29:40;;;;;;;4.05;2.10;;;17.40;99.90;;;;;;4752250;30;20649;-84
2021/05/15 10:32:15;;;;;;;2.60;1.52;;;17.20;99.90;;;;;;4753933;30;20189;-84
2021/05/15 10:34:45;;;;;;;3.45;1.90;;;17.30;99.90;;;;;;4761533;30;20193;-84
2021/05/15 10:37:16;;;;;;;3.92;2.05;;;17.60;99.90;;;;;;4751944;30;20190;-85
2021/05/15 10:39:41;;;;;;;3.80;2.10;;;18.20;99.90;;;;;;4752863;30;20748;-84
2021/05/15 10:42:08;;;;;;;5.05;2.83;;;;;;;;;;4738357;30;20754;-84
2021/05/15 10:44:45;;;;;;;2.88;1.90;;;17.50;99.90;;;;;;4753567;30;20276;-84
2021/05/15 10:47:11;;;;;;;2.42;2.00;;;;;;;;;;4769601;30;20201;-85
2021/05/15 10:49:37;;;;;;;3.13;2.20;;;17.40;99.90;;;;;;4769276;30;20387;-84
2021/05/15 10:52:15;;;;;;;5.35;2.20;;;17.00;99.90;;;;;;4771692;30;20193;-86
2021/05/15 10:54:43;;;;;;;3.45;2.13;;;17.00;99.90;;;;;;4753695;30;20336;-84
2021/05/15 10:57:09;;;;;;;3.78;2.05;;;;;;;;;;4765907;30;20551;-83
2021/05/15 10:59:36;;;;;;;3.17;1.88;;;17.60;99.90;;;;;;4766637;30;20186;-83
2021/05/15 11:02:08;;;;;;;3.15;2.00;;;17.20;99.90;;;;;;4737326;30;20237;-83
2021/05/15 11:04:55;;;;;;;26.33;15.60;;;17.60;99.90;;;;;;4753105;30;20194;-83
2021/05/15 11:07:35;;;;;;;3.55;2.30;;;17.60;99.10;;;;;;4751636;30;20210;-84
2021/05/15 11:10:09;;;;;;;3.75;2.10;;;17.40;99.90;;;;;;4753394;30;20198;-83
2021/05/15 11:12:43;;;;;;;3.83;2.22;;;18.20;99.00;;;;;;4752819;30;20655;-84
2021/05/15 11:15:14;;;;;;;2.85;2.00;;;17.40;99.90;;;;;;4752894;30;20190;-85
2021/05/15 11:17:40;;;;;;;3.45;2.25;;;;;;;;;;4752427;30;20234;-83
2021/05/15 11:20:18;;;;;;;2.33;1.83;;;17.20;99.90;;;;;;4752160;30;20221;-85
2021/05/15 11:22:52;;;;;;;3.13;2.03;;;17.90;95.80;;;;;;4749679;30;20198;-83
2021/05/15 11:25:22;;;;;;;7.05;2.28;;;17.90;99.90;;;;;;4768528;30;20186;-83
2021/05/15 11:27:58;;;;;;;2.10;1.80;;;18.60;93.30;;;;;;4752408;30;20198;-84
2021/05/15 11:30:24;;;;;;;2.75;1.80;;;;;;;;;;4768372;30;20208;-85
2021/05/15 11:33:07;;;;;;;2.70;2.30;;;17.90;92.70;;;;;;4768370;30;20202;-83
2021/05/15 11:35:44;;;;;;;2.92;2.00;;;18.20;93.50;;;;;;4768378;30;20213;-84
2021/05/15 11:38:11;;;;;;;4.25;1.42;;;18.50;93.10;;;;;;4767597;30;20194;-83
2021/05/15 11:40:45;;;;;;;2.95;1.77;;;19.00;98.00;;;;;;4768177;30;20216;-83
2021/05/15 11:43:16;;;;;;;3.75;2.20;;;18.70;90.60;;;;;;4767273;30;20296;-84
2021/05/15 11:45:41;;;;;;;2.47;2.20;;;18.80;93.70;;;;;;4753855;30;20182;-83
2021/05/15 11:48:20;;;;;;;5.68;2.95;;;18.50;91.00;;;;;;4772124;30;20620;-84
2021/05/15 11:51:10;;;;;;;5.65;3.28;;;18.50;93.00;;;;;;4755290;30;20691;-84
2021/05/15 11:53:42;;;;;;;11.20;4.30;;;18.40;96.80;;;;;;4740444;30;20197;-84
2021/05/15 11:56:13;;;;;;;3.15;2.15;;;18.30;92.10;;;;;;4755858;30;20186;-84
2021/05/15 11:58:49;;;;;;;6.28;3.30;;;18.50;97.90;;;;;;4755481;30;20602;-84
2021/05/15 12:01:22;;;;;;;7.03;2.30;;;18.20;94.40;;;;;;4771688;30;20223;-84
2021/05/15 12:03:49;;;;;;;5.90;4.30;;;18.40;91.90;;;;;;4755514;30;20989;-85
2021/05/15 12:06:15;;;;;;;3.53;2.40;;;19.00;97.00;;;;;;4771811;30;20197;-85
2021/05/15 12:08:43;;;;;;;2.72;2.42;;;18.20;96.30;;;;;;4741114;30;20196;-84
2021/05/15 12:11:09;;;;;;;22.90;12.45;;;17.90;96.40;;;;;;4771336;30;20198;-84
2021/05/15 12:13:35;;;;;;;12.85;7.93;;;18.30;93.90;;;;;;4738315;30;20557;-84
2021/05/15 12:16:03;;;;;;;3.58;2.70;;;18.10;91.50;;;;;;4771440;30;20688;-84
2021/05/15 12:18:30;;;;;;;5.18;2.75;;;18.30;97.50;;;;;;4771476;30;20791;-84
2021/05/15 12:20:56;;;;;;;18.38;9.55;;;18.50;98.00;;;;;;4771263;30;20218;-84
2021/05/15 12:23:26;;;;;;;20.90;11.18;;;18.80;97.70;;;;;;4771830;30;20205;-84
2021/05/15 12:26:03;;;;;;;166.02;86.07;;;18.70;97.40;;;;;;4745339;30;20688;-83
2021/05/15 12:28:31;;;;;;;7.25;4.78;;;18.70;93.50;;;;;;4755506;30;20197;-83
2021/05/15 12:30:58;;;;;;;4.15;2.50;;;18.90;95.10;;;;;;4770700;30;20664;-84
2021/05/15 12:33:25;;;;;;;7.65;3.95;;;19.50;95.20;;;;;;4755568;30;20548;-86
2021/05/15 12:36:05;;;;;;;9.52;5.60;;;18.90;94.20;;;;;;4756015;30;20198;-86
2021/05/15 12:38:33;;;;;;;6.18;2.75;;;19.40;93.90;;;;;;4746248;30;20190;-86
2021/05/15 12:41:10;;;;;;;3.58;2.58;;;19.20;93.50;;;;;;4753986;30;20205;-86
2021/05/15 12:43:38;;;;;;;5.05;3.30;;;19.50;84.90;;;;;;4755847;30;20276;-85
2021/05/15 12:46:12;;;;;;;3.80;2.85;;;19.30;93.70;;;;;;4771206;30;20190;-86
2021/05/15 12:48:40;;;;;;;4.13;2.60;;;19.40;86.30;;;;;;4771958;30;20262;-85
2021/05/15 12:51:14;;;;;;;3.78;2.50;;;19.70;83.30;;;;;;4754716;30;20301;-84
2021/05/15 12:53:41;;;;;;;12.88;7.45;;;19.60;83.20;;;;;;4747020;30;20699;-84
2021/05/15 12:56:12;;;;;;;7.63;2.75;;;20.10;92.40;;;;;;4754606;30;20194;-86
2021/05/15 12:58:39;;;;;;;7.95;3.55;;;;;;;;;;4755603;30;20239;-85
2021/05/15 13:01:15;;;;;;;3.05;2.20;;;19.60;79.60;;;;;;4770619;30;20213;-84
2021/05/15 13:03:48;;;;;;;6.13;2.17;;;19.90;90.90;;;;;;4771187;30;20284;-84
2021/05/15 13:06:16;;;;;;;3.60;2.30;;;20.00;90.70;;;;;;4755634;30;20225;-84